Terminal Aerodrome Forecast
Issued by NWS Cleveland, OH

Home | Current Version | Previous Version | Text Only | Print | Product List | Glossary Off
Versions: 1 2 3 4 5 6 7 8 9 10 11 12 13 14 15 16

000
FTUS41 KCLE 261123
TAFERI
TAF
KERI 261123Z 2612/2712 24006KT P6SM SCT025 OVC040
      TEMPO 2612/2616 6SM -SHRA BKN025
     FM261600 29008KT P6SM BKN035
     FM270100 28005KT P6SM OVC035=

USA.gov is the U.S. government's official web portal to all federal, state and local government web resources and services.